createdAt,value
2019-02-25T00:01:43.108Z,5.90
2019-02-25T00:04:13.208Z,5.97
2019-02-25T00:06:42.615Z,6.05
2019-02-25T00:09:14.986Z,6.02
2019-02-25T00:11:44.068Z,5.98
2019-02-25T00:14:13.604Z,5.68
2019-02-25T00:16:43.630Z,5.73
2019-02-25T00:19:13.220Z,5.90
2019-02-25T00:21:43.267Z,5.86
2019-02-25T00:24:12.508Z,5.44
2019-02-25T00:26:44.085Z,5.65
2019-02-25T00:29:14.012Z,5.87
2019-02-25T00:31:43.340Z,5.73
2019-02-25T00:34:12.709Z,5.53
2019-02-25T00:36:42.921Z,5.70
2019-02-25T00:39:12.426Z,5.57
2019-02-25T00:41:42.314Z,5.78
2019-02-25T00:44:13.807Z,5.53
2019-02-25T00:46:43.908Z,5.61
2019-02-25T00:49:13.220Z,5.46
2019-02-25T00:51:43.007Z,5.62
2019-02-25T00:54:12.240Z,5.42
2019-02-25T00:56:41.513Z,5.40
2019-02-25T00:59:11.504Z,5.45
2019-02-25T01:01:40.777Z,5.21
2019-02-25T01:04:12.630Z,5.12
2019-02-25T01:06:42.104Z,5.27
2019-02-25T01:09:11.629Z,5.27
2019-02-25T01:11:41.458Z,5.32
2019-02-25T01:14:11.112Z,5.36
2019-02-25T01:16:41.258Z,5.41
2019-02-25T01:19:11.409Z,5.24
2019-02-25T01:21:44.439Z,5.18
2019-02-25T01:24:14.428Z,5.13
2019-02-25T01:26:43.677Z,5.04
2019-02-25T01:29:13.696Z,5.18
2019-02-25T01:31:43.265Z,5.20
2019-02-25T01:34:13.525Z,5.25
2019-02-25T01:36:45.058Z,5.08
2019-02-25T01:39:15.262Z,4.97
2019-02-25T01:41:44.619Z,5.02
2019-02-25T01:44:15.014Z,4.68
2019-02-25T01:46:44.338Z,4.68
2019-02-25T01:49:14.414Z,4.82
2019-02-25T01:51:43.626Z,4.94
2019-02-25T01:54:15.538Z,4.74
2019-02-25T01:56:45.288Z,5.04
2019-02-25T01:59:15.258Z,4.83
2019-02-25T02:01:45.008Z,4.76
2019-02-25T02:04:14.620Z,4.82
2019-02-25T02:06:44.345Z,4.91
2019-02-25T02:09:16.394Z,4.79
2019-02-25T02:11:46.905Z,4.78
2019-02-25T02:14:16.836Z,4.80
2019-02-25T02:16:46.366Z,4.69
2019-02-25T02:19:16.055Z,4.71
2019-02-25T02:21:45.370Z,4.71
2019-02-25T02:24:14.982Z,5.00
2019-02-25T02:26:46.785Z,4.86
2019-02-25T02:29:17.076Z,4.75
2019-02-25T02:31:46.316Z,4.70
2019-02-25T02:34:16.654Z,4.58
2019-02-25T02:36:46.301Z,4.80
2019-02-25T02:39:16.294Z,4.80
2019-02-25T02:42:13.862Z,4.67
2019-02-25T02:44:44.342Z,4.64
2019-02-25T02:47:22.337Z,4.80
2019-02-25T02:49:53.633Z,4.94
2019-02-25T02:52:24.113Z,5.05
2019-02-25T02:54:54.354Z,4.96
2019-02-25T02:57:24.094Z,4.86
2019-02-25T02:59:53.403Z,4.95
2019-02-25T03:02:22.588Z,4.90
2019-02-25T03:04:52.786Z,4.79
2019-02-25T03:07:22.887Z,4.78
2019-02-25T03:09:53.193Z,4.89
2019-02-25T03:12:23.502Z,4.74
2019-02-25T03:14:53.651Z,4.67
2019-02-25T03:17:23.138Z,4.76
2019-02-25T03:19:52.274Z,4.72
2019-02-25T03:22:23.810Z,4.66
2019-02-25T03:24:53.901Z,4.76
2019-02-25T03:27:24.028Z,4.75
2019-02-25T03:29:53.509Z,4.73
2019-02-25T03:32:22.707Z,4.58
2019-02-25T03:34:52.886Z,4.43
2019-02-25T03:37:22.520Z,4.39
2019-02-25T03:39:52.653Z,4.59
2019-02-25T03:42:24.489Z,4.61
2019-02-25T03:44:53.999Z,4.32
2019-02-25T03:47:23.724Z,4.34
2019-02-25T03:49:52.964Z,4.56
2019-02-25T03:52:22.883Z,4.43
2019-02-25T03:54:52.341Z,4.48
2019-02-25T03:57:23.002Z,4.48
2019-02-25T03:59:53.843Z,4.41
2019-02-25T04:02:24.367Z,4.30
2019-02-25T04:04:54.527Z,4.24
2019-02-25T04:07:23.769Z,4.33
2019-02-25T04:09:53.294Z,4.41
2019-02-25T04:12:23.489Z,4.22
2019-02-25T04:14:52.940Z,4.29
2019-02-25T04:17:23.995Z,4.43
2019-02-25T04:19:54.700Z,4.45
2019-02-25T04:22:25.843Z,4.31
2019-02-25T04:24:55.165Z,4.38
2019-02-25T04:27:24.799Z,4.48
2019-02-25T04:29:54.707Z,4.30
2019-02-25T04:32:27.010Z,4.20
2019-02-25T04:34:56.997Z,4.26
2019-02-25T04:37:26.994Z,4.04
2019-02-25T04:39:56.931Z,3.98
2019-02-25T04:42:27.006Z,3.99
2019-02-25T04:44:56.660Z,4.08
2019-02-25T04:47:25.863Z,4.21
2019-02-25T04:49:56.253Z,4.06
2019-02-25T04:52:28.353Z,4.08
2019-02-25T04:54:58.335Z,4.19
2019-02-25T04:57:27.852Z,4.22
2019-02-25T04:59:57.530Z,4.12
2019-02-25T05:02:27.213Z,4.27
2019-02-25T05:04:57.019Z,3.99
2019-02-25T05:07:27.901Z,4.17
2019-02-25T05:09:59.469Z,4.24
2019-02-25T05:12:29.515Z,4.14
2019-02-25T05:14:59.042Z,4.32
2019-02-25T05:17:29.712Z,4.25
2019-02-25T05:19:58.950Z,4.16
2019-02-25T05:22:30.697Z,4.12
2019-02-25T05:25:00.730Z,4.10
2019-02-25T05:27:30.338Z,4.25
2019-02-25T05:30:00.376Z,4.20
2019-02-25T05:32:41.680Z,3.94
2019-02-25T05:35:13.704Z,4.12
2019-02-25T05:37:43.890Z,4.29
2019-02-25T05:40:15.543Z,4.11
2019-02-25T05:42:45.695Z,4.15
2019-02-25T05:45:18.765Z,3.99
2019-02-25T05:47:48.248Z,3.98
2019-02-25T05:50:21.074Z,4.00
2019-02-25T05:52:51.582Z,4.24
2019-02-25T05:55:21.894Z,4.13
2019-02-25T05:57:52.576Z,4.27
2019-02-25T06:00:25.200Z,4.00
2019-02-25T06:02:55.425Z,3.95
2019-02-25T06:05:25.421Z,3.94
2019-02-25T06:07:55.498Z,4.20
2019-02-25T06:10:24.958Z,4.08
2019-02-25T06:12:55.789Z,4.14
2019-02-25T06:15:26.350Z,3.96
2019-02-25T06:17:56.507Z,4.12
2019-02-25T06:20:26.455Z,4.14
2019-02-25T06:22:56.157Z,4.13
2019-02-25T06:25:25.500Z,4.20
2019-02-25T06:27:55.103Z,4.27
2019-02-25T06:30:27.818Z,4.44
2019-02-25T06:32:57.974Z,4.26
2019-02-25T06:35:27.494Z,4.29
2019-02-25T06:37:56.915Z,4.40
2019-02-25T06:40:27.308Z,4.46
2019-02-25T06:42:57.903Z,4.52
2019-02-25T06:45:32.368Z,4.53
2019-02-25T06:48:01.987Z,4.48
2019-02-25T06:50:31.852Z,4.15
2019-02-25T06:53:02.151Z,4.48
2019-02-25T06:55:31.347Z,4.48
2019-02-25T06:58:00.849Z,4.56
2019-02-25T07:00:32.556Z,4.53
2019-02-25T07:03:03.087Z,4.60
2019-02-25T07:05:43.344Z,4.60
2019-02-25T07:08:32.018Z,4.49
2019-02-25T07:11:11.023Z,4.61
2019-02-25T07:13:45.321Z,4.43
2019-02-25T07:16:18.136Z,4.74
2019-02-25T07:18:49.678Z,4.62
2019-02-25T07:21:38.499Z,4.59
2019-02-25T07:24:26.298Z,4.69
2019-02-25T07:27:13.444Z,4.85
2019-02-25T07:29:46.771Z,4.91
2019-02-25T07:32:35.439Z,5.08
2019-02-25T07:35:15.152Z,5.23
2019-02-25T07:37:54.720Z,5.28
2019-02-25T07:40:27.945Z,5.25
2019-02-25T07:42:59.289Z,5.14
2019-02-25T07:45:32.277Z,5.32
2019-02-25T07:48:06.295Z,5.68
2019-02-25T07:50:58.024Z,5.43
2019-02-25T07:53:41.254Z,5.65
2019-02-25T07:56:14.464Z,5.91
2019-02-25T07:58:50.965Z,5.86
2019-02-25T08:01:22.525Z,6.06
2019-02-25T08:03:54.264Z,6.16
2019-02-25T08:06:32.394Z,6.15
2019-02-25T08:09:06.287Z,6.21
2019-02-25T08:11:38.922Z,6.27
2019-02-25T08:14:12.118Z,7.03
2019-02-25T08:16:43.106Z,6.85
2019-02-25T08:19:14.619Z,6.96
2019-02-25T08:21:46.718Z,6.95
2019-02-25T08:24:30.569Z,7.09
2019-02-25T08:27:12.394Z,7.52
2019-02-25T08:29:49.407Z,7.71
2019-02-25T08:32:21.830Z,9.02
2019-02-25T08:35:04.722Z,8.59
2019-02-25T08:37:47.007Z,8.88
2019-02-25T08:40:23.621Z,9.23
2019-02-25T08:42:56.306Z,9.65
2019-02-25T08:45:27.504Z,10.15
2019-02-25T08:48:02.735Z,12.27
2019-02-25T08:50:32.123Z,13.89
2019-02-25T08:53:01.699Z,15.42
2019-02-25T08:55:31.835Z,15.47
2019-02-25T08:58:01.285Z,16.17
2019-02-25T09:00:30.976Z,14.74
2019-02-25T09:03:01.098Z,17.02
2019-02-25T09:05:33.141Z,17.18
2019-02-25T09:08:03.462Z,18.53
2019-02-25T09:10:32.950Z,22.48
2019-02-25T09:13:02.560Z,23.20
2019-02-25T09:15:32.605Z,22.10
2019-02-25T09:18:00.439Z,22.24
2019-02-25T09:20:29.943Z,21.37
2019-02-25T09:22:59.938Z,20.86
2019-02-25T09:25:31.708Z,18.63
2019-02-25T09:28:01.430Z,18.82
2019-02-25T09:30:31.165Z,18.55
2019-02-25T09:33:00.969Z,18.23
2019-02-25T09:35:31.355Z,18.23
2019-02-25T09:38:01.170Z,21.99
2019-02-25T09:40:33.153Z,23.62
2019-02-25T09:43:03.197Z,26.78
2019-02-25T09:45:32.494Z,25.49
2019-02-25T09:48:02.417Z,21.66
2019-02-25T09:50:32.559Z,22.74
2019-02-25T09:53:01.809Z,24.20
2019-02-25T09:55:31.885Z,24.15
2019-02-25T09:58:02.974Z,23.80
2019-02-25T10:00:36.399Z,24.13
2019-02-25T10:03:05.985Z,26.26
2019-02-25T10:05:36.127Z,22.88
2019-02-25T10:08:05.551Z,25.89
2019-02-25T10:10:35.785Z,26.00
2019-02-25T10:13:07.846Z,27.37
2019-02-25T10:15:37.740Z,28.02
2019-02-25T10:18:07.416Z,26.39
2019-02-25T10:20:38.768Z,22.10
2019-02-25T10:23:08.729Z,22.41
2019-02-25T10:25:38.252Z,27.31
2019-02-25T10:28:09.073Z,27.57
2019-02-25T10:30:38.787Z,24.58
2019-02-25T10:33:08.879Z,26.23
2019-02-25T10:35:38.983Z,25.62
2019-02-25T10:38:09.196Z,25.91
2019-02-25T10:40:38.874Z,28.44
2019-02-25T10:43:08.251Z,29.11
2019-02-25T10:45:41.172Z,29.65
2019-02-25T10:48:11.151Z,26.62
2019-02-25T10:50:40.961Z,27.35
2019-02-25T10:53:13.048Z,25.45
2019-02-25T10:55:53.031Z,27.03
2019-02-25T10:58:24.762Z,29.22
2019-02-25T11:00:55.196Z,22.82
2019-02-25T11:03:24.460Z,23.45
2019-02-25T11:05:58.268Z,24.86
2019-02-25T11:08:27.404Z,23.32
2019-02-25T11:10:58.232Z,20.44
2019-02-25T11:13:29.679Z,23.41
2019-02-25T11:15:59.611Z,21.29
2019-02-25T11:18:28.918Z,19.54
2019-02-25T11:21:03.676Z,20.09
2019-02-25T11:23:32.850Z,21.01
2019-02-25T11:26:02.549Z,24.40
2019-02-25T11:28:33.921Z,26.79
2019-02-25T11:31:03.570Z,27.15
2019-02-25T11:33:34.376Z,23.93
2019-02-25T11:36:06.120Z,25.17
2019-02-25T11:38:37.429Z,27.07
2019-02-25T11:41:09.028Z,26.19
2019-02-25T11:43:38.139Z,27.14
2019-02-25T11:46:08.036Z,29.05
2019-02-25T11:48:39.575Z,29.62
2019-02-25T11:51:09.732Z,33.34
2019-02-25T11:53:39.041Z,34.09
2019-02-25T11:56:08.944Z,35.24
2019-02-25T11:58:39.077Z,35.17
2019-02-25T12:01:09.225Z,32.73
2019-02-25T12:03:39.272Z,29.31
2019-02-25T12:06:10.535Z,27.38
2019-02-25T12:08:40.966Z,26.67
2019-02-25T12:11:10.417Z,26.33
2019-02-25T12:13:40.492Z,24.73
2019-02-25T12:16:10.837Z,24.22
2019-02-25T12:18:40.694Z,24.11
2019-02-25T12:21:10.801Z,26.64
2019-02-25T12:23:42.199Z,24.78
2019-02-25T12:26:12.500Z,24.21
2019-02-25T12:28:42.628Z,26.26
2019-02-25T12:31:12.302Z,23.24
2019-02-25T12:33:42.557Z,23.03
2019-02-25T12:36:13.787Z,22.97
2019-02-25T12:38:44.038Z,24.03
2019-02-25T12:41:13.465Z,24.82
2019-02-25T12:43:42.865Z,22.42
2019-02-25T12:46:12.374Z,20.98
2019-02-25T12:48:41.933Z,18.96
2019-02-25T12:51:11.659Z,18.96
2019-02-25T12:53:41.486Z,23.93
2019-02-25T12:56:12.286Z,24.97
2019-02-25T12:58:44.052Z,22.02
2019-02-25T13:01:13.505Z,21.07
2019-02-25T13:03:43.093Z,22.72
2019-02-25T13:06:13.257Z,22.94
2019-02-25T13:08:42.424Z,23.36
2019-02-25T13:11:12.023Z,27.24
2019-02-25T13:13:43.761Z,25.05
2019-02-25T13:16:14.199Z,27.44
2019-02-25T13:18:43.449Z,28.66
2019-02-25T13:21:12.798Z,27.99
2019-02-25T13:23:43.110Z,24.63
2019-02-25T13:26:12.712Z,22.02
2019-02-25T13:28:42.844Z,21.06
2019-02-25T13:31:13.788Z,20.55
2019-02-25T13:33:43.342Z,19.49
2019-02-25T13:36:13.027Z,20.05
2019-02-25T13:38:43.253Z,19.78
2019-02-25T13:41:13.328Z,19.82
2019-02-25T13:43:42.818Z,19.63
2019-02-25T13:46:12.757Z,18.65
2019-02-25T13:48:44.413Z,17.90
2019-02-25T13:51:13.707Z,18.07
2019-02-25T13:53:43.233Z,18.28
2019-02-25T13:56:12.835Z,18.20
2019-02-25T13:58:42.123Z,17.44
2019-02-25T14:01:11.527Z,17.34
2019-02-25T14:03:40.816Z,17.65
2019-02-25T14:06:10.274Z,17.69
2019-02-25T14:08:41.084Z,17.65
2019-02-25T14:11:11.225Z,17.68
2019-02-25T14:13:41.520Z,17.68
2019-02-25T14:16:11.621Z,17.66
2019-02-25T14:18:41.427Z,17.55
2019-02-25T14:21:11.369Z,17.55
2019-02-25T14:23:45.037Z,17.59
2019-02-25T14:26:15.010Z,17.07
2019-02-25T14:28:46.716Z,17.27
2019-02-25T14:31:16.102Z,17.01
2019-02-25T14:33:46.548Z,16.96
2019-02-25T14:36:16.807Z,17.00
2019-02-25T14:38:48.852Z,16.85
2019-02-25T14:41:19.101Z,16.79
2019-02-25T14:43:51.559Z,16.71
2019-02-25T14:46:24.111Z,16.77
2019-02-25T14:48:55.443Z,16.48
2019-02-25T14:51:26.101Z,16.46
2019-02-25T14:53:55.468Z,16.33
2019-02-25T14:56:24.967Z,16.58
2019-02-25T14:58:55.500Z,16.57
2019-02-25T15:01:27.506Z,16.41
2019-02-25T15:04:00.538Z,16.27
2019-02-25T15:06:32.592Z,16.25
2019-02-25T15:09:05.625Z,16.05
2019-02-25T15:11:35.920Z,15.92
2019-02-25T15:14:08.124Z,15.93
2019-02-25T15:16:38.667Z,15.96
2019-02-25T15:19:08.252Z,15.92
2019-02-25T15:21:37.741Z,15.95
2019-02-25T15:24:08.463Z,15.71
2019-02-25T15:26:42.993Z,15.66
2019-02-25T15:29:12.195Z,15.70
2019-02-25T15:31:44.422Z,15.70
2019-02-25T15:34:15.472Z,15.63
2019-02-25T15:36:45.937Z,15.43
2019-02-25T15:39:16.257Z,15.35
2019-02-25T15:41:48.611Z,15.32
2019-02-25T15:44:19.167Z,15.16
2019-02-25T15:46:48.751Z,15.21
2019-02-25T15:49:19.679Z,15.13
2019-02-25T15:51:50.098Z,15.15
2019-02-25T15:54:19.936Z,15.10
2019-02-25T15:56:51.628Z,15.06
2019-02-25T15:59:31.758Z,15.00
2019-02-25T16:01:53.931Z,15.01
2019-02-25T16:04:25.560Z,14.96
2019-02-25T16:06:57.415Z,14.97
2019-02-25T16:09:29.704Z,14.87
2019-02-25T16:12:05.448Z,14.84
2019-02-25T16:14:35.940Z,14.83
2019-02-25T16:17:06.396Z,14.74
2019-02-25T16:19:47.146Z,14.74
2019-02-25T16:22:11.765Z,14.69
2019-02-25T16:24:43.673Z,14.61
2019-02-25T16:27:16.790Z,14.51
2019-02-25T16:29:48.930Z,14.44
2019-02-25T16:32:24.089Z,14.41
2019-02-25T16:34:53.736Z,14.39
2019-02-25T16:37:24.953Z,14.35
2019-02-25T16:40:00.452Z,14.30
2019-02-25T16:42:30.254Z,14.25
2019-02-25T16:45:01.339Z,14.19
2019-02-25T16:47:35.509Z,14.14
2019-02-25T16:50:07.028Z,14.09
2019-02-25T16:52:40.701Z,14.02
2019-02-25T16:55:10.594Z,13.97
2019-02-25T16:57:43.368Z,13.93
2019-02-25T17:00:25.338Z,13.88
2019-02-25T17:02:59.277Z,13.82
2019-02-25T17:05:30.916Z,13.75
2019-02-25T17:08:01.801Z,13.69
2019-02-25T17:10:33.827Z,13.67
2019-02-25T17:13:03.764Z,13.61
2019-02-25T17:15:36.648Z,13.55
2019-02-25T17:18:06.674Z,13.52
2019-02-25T17:20:36.594Z,13.47
2019-02-25T17:23:09.373Z,13.42
2019-02-25T17:25:38.933Z,13.36
2019-02-25T17:28:14.354Z,13.36
2019-02-25T17:30:45.003Z,13.27
2019-02-25T17:33:15.974Z,13.27
2019-02-25T17:35:49.363Z,13.23
2019-02-25T17:38:20.924Z,13.22
2019-02-25T17:40:52.203Z,13.17
2019-02-25T17:43:21.589Z,13.13
2019-02-25T17:45:51.210Z,13.12
2019-02-25T17:48:21.275Z,13.07
2019-02-25T17:50:53.407Z,13.03
2019-02-25T17:53:26.230Z,13.05
2019-02-25T17:55:57.682Z,13.01
2019-02-25T17:58:27.662Z,12.89
2019-02-25T18:00:58.753Z,12.89
2019-02-25T18:03:28.666Z,12.84
2019-02-25T18:06:00.528Z,12.80
2019-02-25T18:08:33.005Z,12.71
2019-02-25T18:11:03.479Z,12.72
2019-02-25T18:13:35.091Z,12.64
2019-02-25T18:16:04.577Z,12.62
2019-02-25T18:18:36.600Z,12.57
2019-02-25T18:21:08.988Z,12.40
2019-02-25T18:23:38.366Z,12.29
2019-02-25T18:26:07.674Z,12.41
2019-02-25T18:28:37.444Z,12.45
2019-02-25T18:31:09.588Z,12.40
2019-02-25T18:33:42.034Z,12.37
2019-02-25T18:36:11.704Z,12.34
2019-02-25T18:38:41.501Z,12.30
2019-02-25T18:41:10.826Z,12.25
2019-02-25T18:43:40.567Z,12.04
2019-02-25T18:46:10.198Z,12.13
2019-02-25T18:48:40.853Z,12.07
2019-02-25T18:51:28.358Z,11.96
2019-02-25T18:58:07.940Z,12.08
2019-02-25T19:00:40.181Z,12.02
2019-02-25T19:03:09.614Z,12.00
2019-02-25T19:05:38.184Z,11.91
2019-02-25T19:08:17.168Z,11.88
2019-02-25T19:10:48.017Z,11.88
2019-02-25T19:13:20.185Z,11.89
2019-02-25T19:15:48.824Z,11.88
2019-02-25T19:18:17.741Z,11.84
2019-02-25T19:20:48.124Z,11.80
2019-02-25T19:23:16.821Z,11.78
2019-02-25T19:25:45.409Z,11.72
2019-02-25T19:28:16.512Z,11.73
2019-02-25T19:30:44.061Z,11.69
2019-02-25T19:33:12.581Z,11.67
2019-02-25T19:35:41.480Z,11.63
2019-02-25T19:38:12.777Z,11.62
2019-02-25T19:40:41.184Z,11.49
2019-02-25T19:43:11.287Z,11.48
2019-02-25T19:45:40.950Z,11.46
2019-02-25T19:48:10.249Z,11.39
2019-02-25T19:50:50.242Z,11.40
2019-02-25T19:53:12.057Z,11.34
2019-02-25T19:55:43.341Z,11.37
2019-02-25T19:58:11.570Z,11.34
2019-02-25T20:00:40.102Z,11.29
2019-02-25T20:03:08.561Z,11.21
2019-02-25T20:05:41.221Z,11.12
2019-02-25T20:08:07.124Z,11.25
2019-02-25T20:10:37.198Z,11.27
2019-02-25T20:13:08.744Z,11.24
2019-02-25T20:15:41.693Z,11.11
2019-02-25T20:18:12.139Z,11.15
2019-02-25T20:20:44.592Z,11.03
2019-02-25T20:30:13.392Z,11.12
2019-02-25T20:32:44.754Z,10.79
2019-02-25T20:35:17.829Z,10.93
2019-02-25T20:37:51.162Z,11.04
2019-02-25T20:40:21.809Z,11.03
2019-02-25T20:42:53.486Z,10.96
2019-02-25T20:45:28.856Z,10.98
2019-02-25T20:47:59.683Z,10.98
2019-02-25T20:50:30.032Z,11.02
2019-02-25T20:53:04.952Z,11.00
2019-02-25T20:55:31.482Z,10.97
2019-02-25T20:57:59.792Z,10.81
2019-02-25T21:00:30.539Z,10.92
2019-02-25T21:02:58.979Z,10.93
2019-02-25T21:05:27.512Z,10.89
2019-02-25T21:07:57.963Z,10.85
2019-02-25T21:10:29.306Z,10.49
2019-02-25T21:12:57.727Z,10.61
2019-02-25T21:15:26.800Z,10.58
2019-02-25T21:17:57.733Z,10.57
2019-02-25T21:20:26.222Z,10.76
2019-02-25T21:22:57.761Z,10.65
2019-02-25T21:25:26.989Z,10.69
2019-02-25T21:27:59.205Z,10.74
2019-02-25T21:30:25.955Z,10.73
2019-02-25T21:32:56.471Z,10.44
2019-02-25T21:35:27.525Z,10.62
2019-02-25T21:37:56.370Z,10.70
2019-02-25T21:40:29.375Z,10.54
2019-02-25T21:42:56.616Z,10.62
2019-02-25T21:45:27.545Z,10.67
2019-02-25T21:47:56.517Z,10.64
2019-02-25T21:50:28.389Z,10.63
2019-02-25T21:52:56.059Z,10.62
2019-02-25T21:55:27.464Z,10.36
2019-02-25T21:57:55.473Z,10.29
2019-02-25T22:00:27.004Z,10.39
2019-02-25T22:02:56.188Z,10.35
2019-02-25T22:05:24.598Z,10.48
2019-02-25T22:07:56.660Z,10.53
2019-02-25T22:10:23.219Z,10.52
2019-02-25T22:12:51.680Z,10.43
2019-02-25T22:15:22.440Z,10.42
2019-02-25T22:17:53.001Z,10.37
2019-02-25T22:20:22.501Z,10.41
2019-02-25T22:22:54.492Z,10.18
2019-02-25T22:25:22.206Z,9.82
2019-02-25T22:27:50.628Z,10.07
2019-02-25T22:30:19.967Z,9.87
2019-02-25T22:32:48.387Z,9.47
2019-02-25T22:35:16.824Z,9.25
2019-02-25T22:37:49.211Z,9.41
2019-02-25T22:40:17.190Z,9.34
2019-02-25T22:42:47.982Z,9.16
2019-02-25T22:45:21.039Z,9.08
2019-02-25T22:47:49.441Z,8.97
2019-02-25T22:50:17.846Z,9.16
2019-02-25T22:52:46.418Z,9.16
2019-02-25T22:55:17.369Z,9.24
2019-02-25T22:57:45.954Z,8.82
2019-02-25T23:00:19.710Z,8.62
2019-02-25T23:02:50.298Z,8.60
2019-02-25T23:05:21.266Z,8.59
2019-02-25T23:07:50.638Z,8.59
2019-02-25T23:10:21.958Z,8.65
2019-02-25T23:12:50.313Z,8.73
2019-02-25T23:15:20.529Z,8.53
2019-02-25T23:17:49.061Z,8.54
2019-02-25T23:20:17.473Z,8.40
2019-02-25T23:22:45.914Z,8.59
2019-02-25T23:25:14.345Z,8.61
2019-02-25T23:27:42.785Z,8.49
2019-02-25T23:30:13.236Z,8.39
2019-02-25T23:32:41.649Z,8.32
2019-02-25T23:35:13.670Z,8.22
2019-02-25T23:37:40.460Z,8.02
2019-02-25T23:40:14.409Z,8.09
2019-02-25T23:42:44.238Z,7.89
2019-02-25T23:45:15.523Z,7.44
2019-02-25T23:47:44.414Z,7.84
2019-02-25T23:50:14.405Z,7.93
2019-02-25T23:52:42.964Z,7.53
2019-02-25T23:55:16.548Z,7.71
2019-02-25T23:57:43.655Z,7.87
